Time;durP1;ratioP1;P1;durP2;ratioP2;P2;SDS_P1;SDS_P2;PMS_P1;PMS_P2;Temp;Humidity;BMP_temperature;BMP_pressure;BME280_temperature;BME280_humidity;BME280_pressure;Samples;Min_cycle;Max_cycle;Signal;HPM_P1;HPM_P2
2022/09/23 00:01:22;;;;;;;8.52;3.00;;;;;;;;;;5095049;28;20099;-77
2022/09/23 00:03:48;;;;;;;7.07;2.70;;;;;;;;;;5094994;28;20028;-77
2022/09/23 00:06:16;;;;;;;5.88;3.40;;;;;;;;;;5095242;28;20492;-76
2022/09/23 00:08:43;;;;;;;9.07;3.33;;;;;;;;;;5098414;28;20377;-77
2022/09/23 00:11:10;;;;;;;6.72;3.30;;;;;;;;;;5115438;28;20043;-77
2022/09/23 00:13:37;;;;;;;8.63;3.15;;;;;;;;;;5115357;28;20024;-77
2022/09/23 00:16:06;;;;;;;6.63;3.47;;;;;;;;;;5114702;28;20070;-76
2022/09/23 00:18:33;;;;;;;5.82;3.30;;;;;;;;;;5115415;28;20047;-77
2022/09/23 00:21:08;;;;;;;7.60;3.50;;;;;;;;;;5096743;28;20092;-77
2022/09/23 00:23:34;;;;;;;5.57;3.03;;;;;;;;;;5115110;28;20019;-76
2022/09/23 00:26:01;;;;;;;6.15;3.05;;;;;;;;;;5115230;28;20024;-77
2022/09/23 00:28:27;;;;;;;6.68;2.72;;;;;;;;;;5114926;28;20050;-78
2022/09/23 00:30:53;;;;;;;5.82;3.17;;;;;;;;;;5115045;28;20062;-77
2022/09/23 00:33:19;;;;;;;4.75;3.08;;;;;;;;;;5115120;28;20081;-77
2022/09/23 00:35:46;;;;;;;6.28;3.22;;;;;;;;;;5114959;28;20023;-77
2022/09/23 00:38:13;;;;;;;4.30;2.75;;;;;;;;;;5115105;28;20031;-78
2022/09/23 00:40:45;;;;;;;6.20;3.22;;;;;;;;;;5114810;28;20023;-77
2022/09/23 00:43:11;;;;;;;;;;;;;;;;;;5115506;28;20164;-77
2022/09/23 00:45:38;;;;;;;6.32;3.30;;;;;;;;;;5114959;28;20363;-77
2022/09/23 00:48:05;;;;;;;5.10;3.17;;;;;;;;;;5114766;28;20059;-77
2022/09/23 00:50:34;;;;;;;5.50;3.10;;;;;;;;;;5114821;28;20028;-77
2022/09/23 00:53:01;;;;;;;7.57;3.33;;;;;;;;;;5114823;28;20028;-77
2022/09/23 00:55:29;;;;;;;4.93;2.83;;;;;;;;;;5114703;28;20027;-77
2022/09/23 00:57:57;;;;;;;6.70;3.70;;;;;;;;;;5114412;28;20073;-77
2022/09/23 01:00:24;;;;;;;6.25;3.38;;;;;;;;;;5114721;28;20031;-78
2022/09/23 01:02:50;;;;;;;7.18;3.63;;;;;;;;;;5114618;28;20024;-77
2022/09/23 01:05:17;;;;;;;7.32;3.33;;;;;;;;;;5114649;28;20482;-77
2022/09/23 01:07:43;;;;;;;6.75;3.72;;;;;;;;;;5114449;28;20038;-77
2022/09/23 01:10:10;;;;;;;6.90;3.38;;;;;;;;;;5114436;28;20019;-77
2022/09/23 01:12:42;;;;;;;8.30;3.88;;;;;;;;;;5114389;28;20100;-77
2022/09/23 01:15:27;;;;;;;5.40;3.72;;;;;;;;;;5114255;28;20023;-77
2022/09/23 01:18:11;;;;;;;8.25;3.67;;;;;;;;;;5113993;28;20039;-77
2022/09/23 01:20:55;;;;;;;6.20;3.53;;;;;;;;;;5114130;28;20123;-77
2022/09/23 01:23:27;;;;;;;11.68;3.80;;;;;;;;;;5095866;28;20024;-77
2022/09/23 01:25:53;;;;;;;5.57;3.35;;;;;;;;;;5114184;28;20381;-77
2022/09/23 01:28:34;;;;;;;5.05;2.90;;;;;;;;;;5114101;28;20023;-77
2022/09/23 01:31:00;;;;;;;8.52;3.80;;;;;;;;;;5108822;28;20024;-76
2022/09/23 01:33:36;;;;;;;7.22;3.35;;;;;;;;;;5093683;28;20100;-77
2022/09/23 01:36:38;;;;;;;5.60;3.30;;;;;;;;;;5093324;28;20139;-76
2022/09/23 01:39:16;;;;;;;9.17;3.70;;;;;;;;;;4991809;28;20026;-77
2022/09/23 01:41:57;;;;;;;9.48;3.50;;;;;;;;;;5081680;28;20417;-76
2022/09/23 01:44:29;;;;;;;5.65;3.10;;;;;;;;;;5093553;28;20024;-77
2022/09/23 01:47:16;;;;;;;7.40;3.22;;;;;;;;;;5074826;28;20046;-76
2022/09/23 01:49:50;;;;;;;7.85;3.78;;;;;;;;;;5093435;28;20026;-77
2022/09/23 01:52:22;;;;;;;11.65;3.92;;;;;;;;;;5093421;28;20471;-76
2022/09/23 01:54:52;;;;;;;7.25;4.10;;;;;;;;;;5093028;28;20073;-76
2022/09/23 01:57:26;;;;;;;5.90;3.75;;;;;;;;;;5093455;28;20024;-77
2022/09/23 01:59:55;;;;;;;8.25;3.90;;;;;;;;;;5092979;28;20063;-76
2022/09/23 02:02:48;;;;;;;6.40;3.65;;;;;;;;;;5075032;28;20063;-77
2022/09/23 02:05:37;;;;;;;7.68;4.00;;;;;;;;;;5093189;28;20028;-77
2022/09/23 02:08:06;;;;;;;8.25;4.07;;;;;;;;;;5079512;28;20049;-76
2022/09/23 02:10:36;;;;;;;7.22;3.85;;;;;;;;;;5074484;28;20489;-77
2022/09/23 02:13:05;;;;;;;9.50;4.50;;;;;;;;;;5092789;28;20020;-76
2022/09/23 02:15:35;;;;;;;8.02;4.15;;;;;;;;;;5092757;28;20028;-77
2022/09/23 02:18:03;;;;;;;7.32;3.97;;;;;;;;;;5092686;28;20048;-76
2022/09/23 02:20:32;;;;;;;8.75;4.25;;;;;;;;;;5092705;28;20077;-77
2022/09/23 02:23:11;;;;;;;9.40;4.05;;;;;;;;;;5097824;28;20024;-77
2022/09/23 02:25:40;;;;;;;9.57;4.60;;;;;;;;;;5112967;28;20020;-77
2022/09/23 02:28:17;;;;;;;8.77;4.13;;;;;;;;;;5094648;28;20054;-76
2022/09/23 02:30:49;;;;;;;6.30;3.97;;;;;;;;;;5112968;28;20019;-76
2022/09/23 02:33:20;;;;;;;10.32;5.13;;;;;;;;;;5112807;28;20049;-76
2022/09/23 02:36:00;;;;;;;8.77;4.55;;;;;;;;;;5112859;28;20486;-76
2022/09/23 02:38:43;;;;;;;6.80;3.83;;;;;;;;;;5112742;28;20020;-77
2022/09/23 02:41:32;;;;;;;9.68;4.55;;;;;;;;;;5094366;28;20099;-77
2022/09/23 02:44:07;;;;;;;6.68;4.07;;;;;;;;;;5102017;28;20121;-77
2022/09/23 02:46:33;;;;;;;8.73;4.55;;;;;;;;;;5112730;28;20079;-76
2022/09/23 02:49:02;;;;;;;9.27;4.68;;;;;;;;;;5112735;28;20015;-76
2022/09/23 02:51:36;;;;;;;11.18;4.00;;;;;;;;;;5112843;28;20106;-76
2022/09/23 02:54:04;;;;;;;8.70;4.88;;;;;;;;;;5112674;28;20027;-76
2022/09/23 02:56:30;;;;;;;8.75;4.63;;;;;;;;;;5112643;28;20086;-77
2022/09/23 02:58:56;;;;;;;19.00;4.93;;;;;;;;;;5100777;28;20020;-77
2022/09/23 03:01:34;;;;;;;12.98;4.38;;;;;;;;;;5092519;28;20020;-76
2022/09/23 03:04:17;;;;;;;10.02;4.65;;;;;;;;;;5107136;28;20031;-77
2022/09/23 03:07:05;;;;;;;6.68;4.20;;;;;;;;;;5112567;28;20027;-77
2022/09/23 03:09:37;;;;;;;8.93;4.60;;;;;;;;;;5112493;28;20028;-76
2022/09/23 03:12:04;;;;;;;6.60;4.35;;;;;;;;;;5094193;28;20028;-76
2022/09/23 03:14:30;;;;;;;7.65;4.53;;;;;;;;;;5112416;28;20034;-77
2022/09/23 03:17:05;;;;;;;8.23;4.32;;;;;;;;;;5103059;28;20432;-76
2022/09/23 03:19:34;;;;;;;11.07;4.35;;;;;;;;;;5094456;28;20424;-77
2022/09/23 03:22:11;;;;;;;11.88;5.10;;;;;;;;;;5096124;28;20130;-77
2022/09/23 03:24:39;;;;;;;10.35;4.97;;;;;;;;;;5095992;28;20032;-77
2022/09/23 03:27:12;;;;;;;10.68;5.55;;;;;;;;;;5095836;28;20102;-77
2022/09/23 03:29:39;;;;;;;10.07;5.40;;;;;;;;;;5096101;28;20024;-77
2022/09/23 03:32:07;;;;;;;8.75;4.90;;;;;;;;;;5074253;28;20047;-76
2022/09/23 03:34:34;;;;;;;10.63;5.63;;;;;;;;;;5075567;28;20017;-77
2022/09/23 03:37:07;;;;;;;11.45;6.97;;;;;;;;;;5075772;28;20108;-77
2022/09/23 03:39:41;;;;;;;8.55;5.43;;;;;;;;;;5075370;28;20048;-77
2022/09/23 03:42:33;;;;;;;9.93;5.65;;;;;;;;;;5057536;28;20390;-77
2022/09/23 03:45:00;;;;;;;8.07;5.40;;;;;;;;;;5070935;28;20174;-77
2022/09/23 03:47:27;;;;;;;13.02;6.00;;;;;;;;;;5056946;28;20476;-77
2022/09/23 03:49:55;;;;;;;11.23;5.50;;;;;;;;;;5075202;28;20078;-77
2022/09/23 03:52:22;;;;;;;9.93;6.03;;;;;;;;;;5075131;28;20029;-77
2022/09/23 03:54:50;;;;;;;8.85;5.40;;;;;;;;;;5075158;28;20421;-77
2022/09/23 03:57:17;;;;;;;9.95;4.85;;;;;;;;;;5075353;28;20090;-77
2022/09/23 03:59:43;;;;;;;11.85;5.60;;;;;;;;;;5075040;28;20416;-76
2022/09/23 04:02:10;;;;;;;16.52;7.03;;;;;;;;;;5075070;28;20021;-77
2022/09/23 04:04:37;;;;;;;11.05;5.45;;;;;;;;;;5074994;28;20044;-77
2022/09/23 04:07:04;;;;;;;11.10;6.43;;;;;;;;;;5075028;28;20570;-77
2022/09/23 04:09:30;;;;;;;11.27;5.80;;;;;;;;;;5066826;28;20070;-77
2022/09/23 04:11:56;;;;;;;8.85;5.85;;;;;;;;;;5095130;28;20494;-77
2022/09/23 04:14:22;;;;;;;11.52;6.05;;;;;;;;;;5095158;28;20103;-77
2022/09/23 04:16:49;;;;;;;12.57;5.88;;;;;;;;;;5102911;28;20031;-77
2022/09/23 04:19:15;;;;;;;13.57;6.85;;;;;;;;;;5115370;28;20089;-76
2022/09/23 04:21:42;;;;;;;11.65;6.80;;;;;;;;;;5115492;28;20016;-77
2022/09/23 04:24:09;;;;;;;10.85;6.38;;;;;;;;;;5115413;28;20058;-76
2022/09/23 04:26:35;;;;;;;14.55;6.50;;;;;;;;;;5115274;28;20438;-76
2022/09/23 04:29:03;;;;;;;13.50;6.53;;;;;;;;;;5114870;28;20482;-76
2022/09/23 04:31:29;;;;;;;11.30;5.93;;;;;;;;;;5115058;28;20035;-76
2022/09/23 04:33:55;;;;;;;10.52;6.05;;;;;;;;;;5096606;28;20024;-77
2022/09/23 04:36:22;;;;;;;12.15;6.15;;;;;;;;;;5114991;28;20050;-76
2022/09/23 04:38:48;;;;;;;15.13;7.10;;;;;;;;;;5114991;28;20016;-77
2022/09/23 04:41:15;;;;;;;11.15;6.85;;;;;;;;;;5114997;28;20427;-77
2022/09/23 04:43:41;;;;;;;11.60;7.47;;;;;;;;;;5096561;28;20028;-76
2022/09/23 04:46:09;;;;;;;15.25;7.45;;;;;;;;;;5114809;28;20359;-76
2022/09/23 04:48:36;;;;;;;10.02;6.45;;;;;;;;;;5114754;28;20378;-76
2022/09/23 04:51:06;;;;;;;9.88;7.07;;;;;;;;;;5114619;28;20034;-76
2022/09/23 04:53:32;;;;;;;13.88;7.72;;;;;;;;;;5114546;28;20414;-76
2022/09/23 04:56:06;;;;;;;10.70;7.07;;;;;;;;;;5114612;28;20027;-76
2022/09/23 04:58:33;;;;;;;12.40;7.68;;;;;;;;;;5106614;28;20093;-77
2022/09/23 05:01:07;;;;;;;15.40;6.93;;;;;;;;;;5094150;28;20099;-76
2022/09/23 05:03:34;;;;;;;9.88;7.10;;;;;;;;;;5094117;28;20036;-77
2022/09/23 05:06:00;;;;;;;13.52;7.05;;;;;;;;;;5094191;28;20038;-76
2022/09/23 05:08:26;;;;;;;15.57;7.97;;;;;;;;;;5094037;28;20024;-77
2022/09/23 05:10:57;;;;;;;12.25;7.50;;;;;;;;;;5094070;28;20423;-76
2022/09/23 05:13:23;;;;;;;13.25;7.70;;;;;;;;;;5093975;28;20020;-76
2022/09/23 05:15:49;;;;;;;14.73;8.07;;;;;;;;;;5093839;28;20107;-76
2022/09/23 05:18:15;;;;;;;12.38;7.35;;;;;;;;;;5093567;28;20064;-76
2022/09/23 05:20:41;;;;;;;12.35;7.30;;;;;;;;;;5093907;28;20442;-77
2022/09/23 05:23:07;;;;;;;12.05;7.95;;;;;;;;;;5093746;28;20020;-76
2022/09/23 05:25:33;;;;;;;10.52;7.13;;;;;;;;;;5093824;28;20024;-76
2022/09/23 05:28:00;;;;;;;13.57;7.85;;;;;;;;;;5093814;28;20024;-77
2022/09/23 05:30:26;;;;;;;15.25;8.07;;;;;;;;;;5093468;28;20070;-76
2022/09/23 05:32:51;;;;;;;18.17;8.32;;;;;;;;;;5093586;28;20052;-76
2022/09/23 05:35:17;;;;;;;15.13;8.70;;;;;;;;;;5093167;28;20122;-76
2022/09/23 05:37:43;;;;;;;13.13;8.20;;;;;;;;;;5093637;28;20099;-77
2022/09/23 05:40:10;;;;;;;11.52;8.32;;;;;;;;;;5093239;28;20102;-77
2022/09/23 05:42:36;;;;;;;12.85;8.43;;;;;;;;;;5092772;28;20027;-77
2022/09/23 05:45:02;;;;;;;12.10;7.60;;;;;;;;;;5093327;28;20020;-76
2022/09/23 05:47:28;;;;;;;14.70;8.75;;;;;;;;;;5093107;28;20044;-77
2022/09/23 05:49:54;;;;;;;16.30;9.45;;;;;;;;;;5093426;28;20042;-76
2022/09/23 05:52:20;;;;;;;14.82;9.23;;;;;;;;;;5093337;28;20039;-77
2022/09/23 05:54:46;;;;;;;14.95;8.98;;;;;;;;;;5093008;28;20042;-77
2022/09/23 05:57:13;;;;;;;15.05;9.48;;;;;;;;;;5093397;28;20047;-76
2022/09/23 05:59:39;;;;;;;13.50;9.35;;;;;;;;;;5093074;28;20082;-77
2022/09/23 06:02:05;;;;;;;18.38;9.80;;;;;;;;;;5092944;28;20016;-77
2022/09/23 06:04:31;;;;;;;13.55;9.82;;;;;;;;;;5092942;28;20081;-76
2022/09/23 06:06:57;;;;;;;18.42;10.80;;;;;;;;;;5093108;28;20417;-76
2022/09/23 06:09:23;;;;;;;15.45;9.85;;;;;;;;;;5102227;28;20457;-77
2022/09/23 06:11:49;;;;;;;16.08;10.23;;;;;;;;;;5113099;28;20024;-77
2022/09/23 06:14:15;;;;;;;18.65;9.80;;;;;;;;;;5113270;28;20373;-77
2022/09/23 06:16:42;;;;;;;17.30;9.88;;;;;;;;;;5112973;28;20051;-76
2022/09/23 06:19:09;;;;;;;18.42;9.52;;;;;;;;;;5094747;28;20015;-77
2022/09/23 06:21:36;;;;;;;18.88;11.73;;;;;;;;;;5113143;28;20016;-77
2022/09/23 06:24:02;;;;;;;16.40;10.48;;;;;;;;;;5112941;28;20418;-76
2022/09/23 06:26:31;;;;;;;15.38;9.80;;;;;;;;;;5112734;28;20031;-76
2022/09/23 06:28:57;;;;;;;22.45;9.77;;;;;;;;;;5112904;28;20024;-77
2022/09/23 06:31:23;;;;;;;17.88;10.35;;;;;;;;;;5112792;28;20024;-77
2022/09/23 06:33:49;;;;;;;19.75;10.13;;;;;;;;;;5113024;28;20034;-76
2022/09/23 06:36:16;;;;;;;23.27;11.25;;;;;;;;;;5112607;28;20011;-76
2022/09/23 06:38:48;;;;;;;19.42;10.27;;;;;;;;;;5112754;28;20027;-76
2022/09/23 06:41:14;;;;;;;18.38;10.70;;;;;;;;;;5094429;28;20015;-77
2022/09/23 06:43:40;;;;;;;16.73;9.85;;;;;;;;;;5112724;28;20023;-77
2022/09/23 06:46:07;;;;;;;19.73;10.13;;;;;;;;;;5112482;28;20016;-77
2022/09/23 06:48:37;;;;;;;19.58;10.02;;;;;;;;;;5094450;28;20474;-77
2022/09/23 06:51:06;;;;;;;17.33;10.32;;;;;;;;;;5104635;28;20076;-77
2022/09/23 06:53:32;;;;;;;22.40;9.73;;;;;;;;;;5112521;28;20020;-77
2022/09/23 06:55:59;;;;;;;16.42;10.88;;;;;;;;;;5112625;28;20028;-77
2022/09/23 06:58:25;;;;;;;15.07;10.02;;;;;;;;;;5112643;28;20020;-77
2022/09/23 07:00:52;;;;;;;16.00;9.77;;;;;;;;;;5112599;28;20024;-76
2022/09/23 07:03:18;;;;;;;18.13;10.05;;;;;;;;;;5112695;28;20466;-77
2022/09/23 07:05:44;;;;;;;19.00;10.40;;;;;;;;;;5112548;28;20037;-77
2022/09/23 07:08:10;;;;;;;16.23;9.40;;;;;;;;;;5112451;28;20032;-77
2022/09/23 07:10:36;;;;;;;17.42;9.52;;;;;;;;;;5112126;28;20035;-77
2022/09/23 07:13:04;;;;;;;15.10;10.98;;;;;;;;;;5112571;28;20064;-77
2022/09/23 07:15:30;;;;;;;18.30;10.40;;;;;;;;;;5109445;28;20084;-77
2022/09/23 07:17:57;;;;;;;20.42;10.50;;;;;;;;;;5111983;28;20142;-77
2022/09/23 07:20:23;;;;;;;18.50;10.20;;;;;;;;;;5093892;28;21342;-77
2022/09/23 07:22:52;;;;;;;16.75;9.88;;;;;;;;;;5112349;28;20394;-77
2022/09/23 07:25:19;;;;;;;17.58;9.80;;;;;;;;;;5093908;28;20069;-77
2022/09/23 07:27:46;;;;;;;17.05;9.70;;;;;;;;;;5112186;28;20338;-77
2022/09/23 07:30:12;;;;;;;20.92;9.90;;;;;;;;;;5112211;28;20019;-77
2022/09/23 07:32:38;;;;;;;17.60;9.68;;;;;;;;;;5093587;28;20027;-77
2022/09/23 07:35:04;;;;;;;16.42;9.07;;;;;;;;;;5111657;28;20024;-78
2022/09/23 07:37:30;;;;;;;16.40;9.05;;;;;;;;;;5112311;28;20047;-77
2022/09/23 07:39:56;;;;;;;15.52;8.45;;;;;;;;;;5112262;28;20055;-77
2022/09/23 07:42:22;;;;;;;18.50;8.38;;;;;;;;;;5112183;28;20024;-77
2022/09/23 07:44:48;;;;;;;23.02;9.35;;;;;;;;;;5111939;28;20414;-77
2022/09/23 07:47:16;;;;;;;16.38;8.88;;;;;;;;;;5111898;28;20024;-77
2022/09/23 07:49:42;;;;;;;15.27;8.50;;;;;;;;;;5112331;28;20016;-77
2022/09/23 07:52:08;;;;;;;18.77;8.82;;;;;;;;;;5112098;28;20039;-77
2022/09/23 07:54:34;;;;;;;14.63;8.25;;;;;;;;;;5112038;28;20027;-77
2022/09/23 07:57:00;;;;;;;18.77;8.52;;;;;;;;;;5112010;28;20080;-77
2022/09/23 07:59:26;;;;;;;13.85;8.10;;;;;;;;;;5111993;28;20040;-77
2022/09/23 08:01:53;;;;;;;10.85;7.35;;;;;;;;;;5111824;28;20103;-77
2022/09/23 08:04:24;;;;;;;17.08;7.72;;;;;;;;;;5094098;28;20026;-77
2022/09/23 08:06:52;;;;;;;16.65;8.90;;;;;;;;;;5115909;28;20066;-77
2022/09/23 08:09:19;;;;;;;16.40;8.88;;;;;;;;;;5111637;28;20446;-77
2022/09/23 08:11:45;;;;;;;12.68;8.43;;;;;;;;;;5115248;28;20034;-77
2022/09/23 08:14:12;;;;;;;14.07;8.35;;;;;;;;;;5115482;28;20031;-77
2022/09/23 08:16:39;;;;;;;13.70;7.88;;;;;;;;;;5114873;28;20043;-76
2022/09/23 08:19:05;;;;;;;17.02;8.15;;;;;;;;;;5115442;28;20026;-77
2022/09/23 08:21:31;;;;;;;14.07;8.35;;;;;;;;;;5115407;28;20027;-77
2022/09/23 08:23:58;;;;;;;13.75;7.45;;;;;;;;;;5115415;28;20041;-77
2022/09/23 08:26:24;;;;;;;15.02;8.23;;;;;;;;;;5115305;28;20093;-77
2022/09/23 08:28:53;;;;;;;14.10;7.57;;;;;;;;;;5115285;28;20027;-77
2022/09/23 08:31:20;;;;;;;12.25;8.10;;;;;;;;;;5096717;28;20028;-77
2022/09/23 08:33:46;;;;;;;12.95;7.40;;;;;;;;;;5115201;28;20334;-77
2022/09/23 08:36:12;;;;;;;15.05;7.72;;;;;;;;;;5114752;28;20102;-77
2022/09/23 08:38:38;;;;;;;11.52;7.47;;;;;;;;;;5114689;28;20024;-77
2022/09/23 08:41:07;;;;;;;12.25;7.05;;;;;;;;;;5114537;28;20020;-77
2022/09/23 08:43:34;;;;;;;12.70;7.18;;;;;;;;;;5114332;28;20059;-77
2022/09/23 08:46:02;;;;;;;13.77;7.68;;;;;;;;;;5114150;28;20026;-77
2022/09/23 08:48:30;;;;;;;11.25;7.78;;;;;;;;;;5095615;28;20799;-77
2022/09/23 08:51:01;;;;;;;14.10;7.18;;;;;;;;;;5111752;28;20535;-77
2022/09/23 08:53:28;;;;;;;15.80;7.75;;;;;;;;;;5114339;28;20461;-76
2022/09/23 08:55:56;;;;;;;11.82;7.32;;;;;;;;;;5092828;28;20023;-77
2022/09/23 08:58:33;;;;;;;13.68;7.20;;;;;;;;;;5114405;28;20450;-77
2022/09/23 09:00:59;;;;;;;11.68;7.25;;;;;;;;;;5111833;28;20035;-76
2022/09/23 09:03:30;;;;;;;12.20;7.20;;;;;;;;;;5113952;28;20023;-76
2022/09/23 09:05:57;;;;;;;10.60;7.03;;;;;;;;;;5111228;28;20015;-77
2022/09/23 09:08:30;;;;;;;10.77;7.47;;;;;;;;;;5113691;28;20023;-76
2022/09/23 09:10:57;;;;;;;17.73;7.00;;;;;;;;;;5114163;28;20036;-76
2022/09/23 09:13:31;;;;;;;13.18;7.43;;;;;;;;;;5113941;28;20563;-76
2022/09/23 09:16:10;;;;;;;10.30;6.85;;;;;;;;;;5113596;28;20031;-77
2022/09/23 09:18:41;;;;;;;15.93;7.78;;;;;;;;;;5113810;28;20362;-77
2022/09/23 09:21:08;;;;;;;12.25;7.57;;;;;;;;;;5113923;28;20023;-76
2022/09/23 09:23:41;;;;;;;11.38;7.07;;;;;;;;;;5113776;28;20023;-76
2022/09/23 09:26:11;;;;;;;12.15;7.07;;;;;;;;;;5112960;28;20028;-76
2022/09/23 09:28:47;;;;;;;10.35;6.93;;;;;;;;;;5113347;28;20024;-76
2022/09/23 09:31:20;;;;;;;9.90;7.00;;;;;;;;;;5113058;28;20024;-77
2022/09/23 09:33:46;;;;;;;12.95;7.20;;;;;;;;;;5094742;28;20023;-77
2022/09/23 09:36:36;;;;;;;15.20;7.22;;;;;;;;;;5113090;28;20024;-77
2022/09/23 09:39:02;;;;;;;14.88;7.10;;;;;;;;;;5066064;28;20044;-77
2022/09/23 09:41:32;;;;;;;17.48;7.28;;;;;;;;;;5113210;28;20023;-76
2022/09/23 09:44:00;;;;;;;11.73;7.07;;;;;;;;;;5094865;28;20034;-77
2022/09/23 09:46:29;;;;;;;12.63;7.05;;;;;;;;;;5113169;28;20027;-77
2022/09/23 09:48:55;;;;;;;13.07;7.18;;;;;;;;;;5112887;28;20438;-77
2022/09/23 09:51:23;;;;;;;10.75;6.60;;;;;;;;;;5113240;28;20023;-77
2022/09/23 09:53:52;;;;;;;12.48;7.05;;;;;;;;;;5094557;28;20089;-76
2022/09/23 09:56:30;;;;;;;9.27;6.53;;;;;;;;;;5108408;28;20024;-77
2022/09/23 09:59:00;;;;;;;12.43;6.38;;;;;;;;;;5112815;28;20027;-77
2022/09/23 10:01:28;;;;;;;14.50;6.35;;;;;;;;;;5112527;28;20016;-77
2022/09/23 10:03:55;;;;;;;13.13;6.53;;;;;;;;;;5094021;28;20107;-77
2022/09/23 10:06:23;;;;;;;10.38;6.57;;;;;;;;;;5112518;28;20431;-77
2022/09/23 10:09:10;;;;;;;12.48;6.95;;;;;;;;;;5107015;28;20066;-77
2022/09/23 10:11:36;;;;;;;14.48;6.85;;;;;;;;;;5105527;28;20022;-78
2022/09/23 10:14:05;;;;;;;12.30;6.40;;;;;;;;;;5096865;28;20085;-77
2022/09/23 10:16:33;;;;;;;12.25;6.53;;;;;;;;;;5107594;28;20047;-77
2022/09/23 10:19:00;;;;;;;14.05;6.13;;;;;;;;;;5087077;28;20042;-77
2022/09/23 10:21:33;;;;;;;11.57;6.35;;;;;;;;;;5111850;28;20015;-77
2022/09/23 10:24:01;;;;;;;13.23;6.38;;;;;;;;;;5103042;28;20016;-76
2022/09/23 10:26:32;;;;;;;11.23;5.97;;;;;;;;;;5100910;28;20031;-77
2022/09/23 10:29:00;;;;;;;14.00;6.95;;;;;;;;;;5102117;27;20016;-77
2022/09/23 10:31:28;;;;;;;11.77;6.70;;;;;;;;;;5113345;27;20571;-77
2022/09/23 10:33:56;;;;;;;15.20;6.38;;;;;;;;;;5111645;27;20152;-77
2022/09/23 10:36:22;;;;;;;13.80;5.60;;;;;;;;;;5115969;27;20027;-77
2022/09/23 10:38:50;;;;;;;9.18;6.47;;;;;;;;;;5104441;27;20114;-77
2022/09/23 10:47:45;;;;;;;12.95;6.32;;;;;;;;;;5106637;27;20032;-77
2022/09/23 10:50:16;;;;;;;12.52;6.40;;;;;;;;;;5107234;27;20020;-77
2022/09/23 10:52:45;;;;;;;10.98;6.03;;;;;;;;;;5104568;28;20016;-77
2022/09/23 10:55:27;;;;;;;7.72;5.57;;;;;;;;;;5112286;28;20030;-77
2022/09/23 10:58:05;;;;;;;8.15;5.63;;;;;;;;;;5122496;28;20097;-77
2022/09/23 11:00:31;;;;;;;9.13;5.47;;;;;;;;;;5123108;28;20058;-77
2022/09/23 11:03:00;;;;;;;11.80;5.78;;;;;;;;;;5122449;28;20095;-77
2022/09/23 11:05:45;;;;;;;9.10;6.00;;;;;;;;;;5123431;28;20024;-77
2022/09/23 11:08:26;;;;;;;11.73;6.13;;;;;;;;;;5123969;28;20031;-77
2022/09/23 11:10:54;;;;;;;10.57;6.50;;;;;;;;;;5118836;28;20028;-78
2022/09/23 11:13:39;;;;;;;12.07;6.00;;;;;;;;;;5113913;28;20016;-78
2022/09/23 11:16:29;;;;;;;8.68;6.03;;;;;;;;;;5110542;28;20123;-77
2022/09/23 11:18:55;;;;;;;12.75;6.10;;;;;;;;;;5112671;28;20452;-77
2022/09/23 11:21:37;;;;;;;10.27;6.45;;;;;;;;;;5112695;28;20146;-78
2022/09/23 11:24:13;;;;;;;10.32;6.63;;;;;;;;;;5112943;28;20023;-77
2022/09/23 11:26:45;;;;;;;12.32;6.22;;;;;;;;;;5112631;28;20030;-78
2022/09/23 11:29:14;;;;;;;11.40;5.90;;;;;;;;;;5112482;28;20381;-77
2022/09/23 11:31:46;;;;;;;11.85;6.13;;;;;;;;;;5094286;28;20061;-77
2022/09/23 11:34:14;;;;;;;9.57;5.68;;;;;;;;;;5104430;28;20027;-77
2022/09/23 11:36:44;;;;;;;11.20;5.50;;;;;;;;;;5103210;28;20431;-77
2022/09/23 11:39:27;;;;;;;11.07;6.63;;;;;;;;;;5106178;28;20469;-77
2022/09/23 11:41:56;;;;;;;11.80;5.60;;;;;;;;;;5087951;28;20518;-77
2022/09/23 11:44:25;;;;;;;10.27;5.70;;;;;;;;;;5099644;28;20069;-77
2022/09/23 11:46:53;;;;;;;13.45;6.47;;;;;;;;;;5112353;28;20096;-77
2022/09/23 11:49:29;;;;;;;10.45;5.97;;;;;;;;;;5104279;28;20809;-78
2022/09/23 11:52:04;;;;;;;13.82;6.75;;;;;;;;;;5110953;28;20023;-77
2022/09/23 11:54:40;;;;;;;9.27;6.05;;;;;;;;;;5111996;28;20061;-77
2022/09/23 11:57:10;;;;;;;8.30;5.68;;;;;;;;;;5109525;28;20427;-77
2022/09/23 11:59:42;;;;;;;10.57;5.35;;;;;;;;;;5111829;28;20092;-77
2022/09/23 12:02:14;;;;;;;11.70;5.45;;;;;;;;;;5110655;28;20020;-77
2022/09/23 12:04:45;;;;;;;10.18;5.70;;;;;;;;;;5111372;28;20055;-77
2022/09/23 12:07:18;;;;;;;10.95;5.45;;;;;;;;;;5105403;28;20031;-77
2022/09/23 12:09:45;;;;;;;;;;;;;;;;;;5115601;28;20039;-78
2022/09/23 12:12:22;;;;;;;6.95;5.28;;;;;;;;;;5106093;28;19908;-77
2022/09/23 12:14:49;;;;;;;10.65;5.57;;;;;;;;;;5084163;28;20023;-78
2022/09/23 12:17:20;;;;;;;19.52;5.43;;;;;;;;;;5113043;28;20088;-78
2022/09/23 12:19:56;;;;;;;13.52;5.68;;;;;;;;;;5096057;28;20308;-78
2022/09/23 12:22:25;;;;;;;7.13;5.35;;;;;;;;;;5110430;28;20054;-78
2022/09/23 12:25:06;;;;;;;9.95;5.35;;;;;;;;;;5100321;28;20024;-78
2022/09/23 12:27:38;;;;;;;11.30;5.57;;;;;;;;;;5106704;28;20023;-78
2022/09/23 12:30:06;;;;;;;9.77;5.35;;;;;;;;;;5107575;28;20023;-78
2022/09/23 12:32:32;;;;;;;9.57;5.07;;;;;;;;;;5106486;28;20031;-77
2022/09/23 12:34:59;;;;;;;11.48;5.53;;;;;;;;;;5108686;27;20026;-78
2022/09/23 12:37:32;;;;;;;8.75;5.47;;;;;;;;;;5104609;28;20020;-78
2022/09/23 12:40:00;;;;;;;10.63;5.53;;;;;;;;;;5108676;28;20027;-78
2022/09/23 12:42:26;;;;;;;10.13;5.60;;;;;;;;;;5101092;28;20027;-75
2022/09/23 12:45:13;;;;;;;12.90;5.80;;;;;;;;;;5104519;27;20019;-75
2022/09/23 12:47:39;;;;;;;8.70;5.10;;;;;;;;;;5111240;27;20022;-76
2022/09/23 12:50:25;;;;;;;14.40;6.25;;;;;;;;;;5113948;27;20016;-78
2022/09/23 12:52:51;;;;;;;10.52;6.00;;;;;;;;;;5100079;28;20019;-77
2022/09/23 12:55:23;;;;;;;10.50;5.45;;;;;;;;;;5116399;27;20394;-77
2022/09/23 12:57:49;;;;;;;8.68;5.63;;;;;;;;;;5109291;27;20031;-77
2022/09/23 13:00:21;;;;;;;15.57;5.65;;;;;;;;;;5112912;27;20081;-77
2022/09/23 13:06:37;;;;;;;;;;;;;;;;;;5103874;27;20409;-78
2022/09/23 13:08:47;;;;;;;16.65;6.38;;;;;;;;;;5108803;28;20115;-78
2022/09/23 13:11:22;;;;;;;11.02;6.03;;;;;;;;;;5104796;28;20031;-78
2022/09/23 13:13:49;;;;;;;11.38;6.25;;;;;;;;;;5104361;28;20149;-79
2022/09/23 13:16:25;;;;;;;10.40;5.50;;;;;;;;;;5085703;28;20364;-79
2022/09/23 13:18:53;;;;;;;11.90;5.57;;;;;;;;;;5101910;28;20020;-78
2022/09/23 13:21:38;;;;;;;13.32;6.20;;;;;;;;;;5090232;28;20474;-79
2022/09/23 13:24:13;;;;;;;13.15;6.15;;;;;;;;;;5107382;27;20023;-79
2022/09/23 13:26:43;;;;;;;14.60;6.68;;;;;;;;;;5108917;27;20062;-78
2022/09/23 13:29:12;;;;;;;13.75;6.35;;;;;;;;;;5110046;27;20015;-78
2022/09/23 13:31:38;;;;;;;15.82;6.45;;;;;;;;;;5104888;27;20034;-78
2022/09/23 13:34:05;;;;;;;12.68;6.03;;;;;;;;;;5108391;27;20103;-79
2022/09/23 13:36:42;;;;;;;11.30;5.40;;;;;;;;;;5101928;28;20112;-79
2022/09/23 13:39:14;;;;;;;9.70;5.35;;;;;;;;;;5102970;28;20016;-78
2022/09/23 13:41:41;;;;;;;11.63;5.85;;;;;;;;;;5111592;28;20438;-77
2022/09/23 13:44:13;;;;;;;12.05;5.65;;;;;;;;;;5105458;28;20012;-77
2022/09/23 13:46:45;;;;;;;13.90;5.35;;;;;;;;;;5100644;28;20391;-77
2022/09/23 13:49:23;;;;;;;8.18;4.70;;;;;;;;;;5101510;28;20132;-77
2022/09/23 13:51:49;;;;;;;8.75;4.57;;;;;;;;;;5103527;28;20023;-77
2022/09/23 13:54:31;;;;;;;9.10;4.32;;;;;;;;;;5102990;28;20024;-77
2022/09/23 13:56:57;;;;;;;10.60;4.03;;;;;;;;;;5103580;28;20039;-77
2022/09/23 13:59:24;;;;;;;7.20;3.75;;;;;;;;;;5094555;28;21789;-78
2022/09/23 14:01:50;;;;;;;5.80;3.33;;;;;;;;;;5106101;28;20023;-77
2022/09/23 14:04:24;;;;;;;5.57;3.05;;;;;;;;;;5100898;28;20016;-77
2022/09/23 14:06:50;;;;;;;5.03;3.40;;;;;;;;;;5102352;28;20052;-77
2022/09/23 14:09:17;;;;;;;7.40;3.42;;;;;;;;;;5099324;28;21493;-77
2022/09/23 14:11:43;;;;;;;8.35;3.60;;;;;;;;;;5099770;28;20032;-77
2022/09/23 14:14:14;;;;;;;9.23;3.22;;;;;;;;;;5099208;28;20024;-77
2022/09/23 14:16:40;;;;;;;7.05;3.55;;;;;;;;;;5106656;28;20123;-77
2022/09/23 14:19:07;;;;;;;5.97;3.30;;;;;;;;;;5112695;28;20031;-77
2022/09/23 14:21:35;;;;;;;8.63;3.63;;;;;;;;;;5082407;28;20024;-77
2022/09/23 14:24:12;;;;;;;7.03;3.70;;;;;;;;;;5108026;27;20031;-76
2022/09/23 14:26:39;;;;;;;10.13;3.45;;;;;;;;;;5107352;28;20059;-77
2022/09/23 14:29:06;;;;;;;5.88;3.47;;;;;;;;;;5088903;27;20027;-77
2022/09/23 14:31:32;;;;;;;4.78;2.97;;;;;;;;;;5108490;27;20027;-77
2022/09/23 14:33:58;;;;;;;8.85;2.95;;;;;;;;;;5113093;27;20507;-77
2022/09/23 14:39:10;;;;;;;5.68;2.50;;;;;;;;;;5105371;27;20030;-77
2022/09/23 14:41:43;;;;;;;10.13;3.05;;;;;;;;;;5103156;28;20042;-77
2022/09/23 14:44:20;;;;;;;8.10;3.45;;;;;;;;;;5110849;27;20018;-77
2022/09/23 14:46:55;;;;;;;6.60;2.80;;;;;;;;;;5115161;27;20070;-77
2022/09/23 14:49:21;;;;;;;5.90;2.63;;;;;;;;;;5107692;28;20023;-77
2022/09/23 14:51:50;;;;;;;7.10;3.33;;;;;;;;;;5102072;27;20079;-77
2022/09/23 14:54:34;;;;;;;5.47;2.80;;;;;;;;;;5117633;27;20381;-77
2022/09/23 14:57:17;;;;;;;6.28;3.20;;;;;;;;;;5113126;27;20034;-77
2022/09/23 14:59:49;;;;;;;6.95;3.38;;;;;;;;;;5112207;28;20035;-77
2022/09/23 15:02:31;;;;;;;7.13;3.80;;;;;;;;;;5106790;28;20072;-77
2022/09/23 15:04:57;;;;;;;;;;;;;;;;;;5114310;28;20424;-77